AirNav   Phillips 66 Aviation Fuel
 
 1526 users online  

09Y Wipline Seaplane Base
Inver Grove Hgts, Minnesota, USA

GOING TO INVER GROVE HGTS?


FAA INFORMATION EFFECTIVE 29 MARCH 2018

Location

FAA Identifier: 09Y
Lat/Long: 44-49-39.2000N / 093-00-31.4000W
44-49.653333N / 093-00.523333W
44.8275556 / -93.0087222
(estimated)
Elevation: 687 ft. / 209 m (estimated)
Variation: 03E (1985)
From city: 2 miles SE of INVER GROVE HGTS, MN
Time zone: UTC -5 (UTC -6 during Standard Time)
Zip code: 55077

Seaplane Base Operations

Seaplane Base use: Open to the public
Activation date: 07/1972
Control tower: no
ARTCC: MINNEAPOLIS CENTER
FSS: PRINCETON FLIGHT SERVICE STATION
NOTAMs facility: PNM (NOTAM-D service available)
Attendance: CONTINUOUS
Wind indicator: yes
Segmented circle: no

Seaplane Base Communications

CTAF: 122.9
WX AWOS-3 at SGS (2.1 nm NW): 119.425 (651-457-8120)
WX ASOS at STP (7 nm N): PHONE 651-298-1410
WX ASOS at MSP (10 nm W): PHONE 612-713-4174
WX AWOS-3 at 21D (12 nm NE): 120.075 (651-779-5949)
WX AWOS-3 at LVN (15 nm SW): 118.0 (952-469-5850)
WX ASOS at FCM (19 nm W): PHONE 952-941-4156

Nearby radio navigation aids

VOR radial/distance  VOR name  Freq  Var
MSPr111/10.5MINNEAPOLIS VOR/DME115.3002E
FGTr026/13.9FARMINGTON VORTAC115.7006E
FCMr089/18.5FLYING CLOUD VOR/DME117.7001E
GEPr135/24.6GOPHER VORTAC117.3006E

 
NDB name  Hdg/Dist  Freq  Var  ID
HOPEY223/4.040003EPPI .--. .--. ..

Seaplane Base Services

Fuel available: 100LL
Parking: tiedowns
Airframe service: MINOR
Powerplant service: MINOR
Bottled oxygen: NONE
Bulk oxygen: NONE

Runway Information

Runway 17W/35W

Dimensions: 8000 x 500 ft. / 2438 x 152 m
Surface: water
RUNWAY 17W  RUNWAY 35W
Latitude: 44-50.293825N44-49.011545N
Longitude: 093-00.733782W093-00.312452W
Elevation: 687.0 ft.687.0 ft.
Traffic pattern: leftright
Runway heading: 164 magnetic, 167 true344 magnetic, 347 true

Seaplane Base Ownership and Management from official FAA records

Ownership: Privately-owned
Owner: ROBERT WIPLINGER
9100 RIVER RD
INVER GROVE HGTS, MN 55076
Phone 612-451-1205
Manager: ROBERT WIPLINGER
9100 RIVER RD
INVER GROVE HTS, MN 55076
Phone 612--286-6612

Seaplane Base Operational Statistics

Aircraft operations: 230/year *
87% local general aviation
13% transient general aviation
* for 12-month period ending 31 July 2015

Additional Remarks

RIVER CHNL MRKD BY BUOYS.
FLOATING DEBRIS ON RIVER AT ALL TIMES.

Instrument Procedures

There are no published instrument procedures at 09Y.

Some nearby airports with instrument procedures:

KSGS - South St Paul Municipal Airport-Richard E Fleming Field (2 nm NW)
KSTP - St. Paul Downtown Airport / Holman Field (7 nm N)
KMSP - Minneapolis-St Paul International/Wold-Chamberlain Airport (10 nm W)
21D - Lake Elmo Airport (12 nm NE)
KLVN - Airlake Airport (15 nm SW)
KFCM - Flying Cloud Airport (19 nm W)
 
Loc | Ops | Rwys | IFR | FBO | Links
Com | Nav | Svcs | Stats | Notes

AirNav Hotels Sweepstakes
 
Area around 09Y (Wipline Seaplane Base)
 
Road maps at: MapQuest Bing Google
 
Aerial photo
No photo
 
Sectional chart

 
Airport distance calculator
Flying to Wipline Seaplane Base? Find the distance to fly.

From to 09Y

Sunrise and sunset
Times for 25-Apr-2018
 Local
(UTC-5)
 Zulu
(UTC)
Morning civil twilight05:4010:40
Sunrise06:1211:12
Sunset20:0801:08
Evening civil twilight20:4001:40

Current date and time
Zulu (UTC)  25-Apr-2018 20:21:46
Local (UTC-5)  25-Apr-2018 15:21:46
 
METAR
KSGS 
6nm W 
251955Z AUTO 00000KT 10SM CLR 14/M05 A3011 RMK AO2 T01401050
KSTP 
7nm N 
251953Z VRB04KT 10SM CLR 14/M06 A3012 RMK AO2 SLP201 T01391061
KMSP 
10nm W 
251953Z 32005KT 10SM CLR 14/M04 A3012 RMK AO2 SLP201 T01441044
K21D 
12nm NE 
251955Z AUTO 28004KT 10SM CLR 13/M02 A3012 RMK AO2
KLVN 
15nm SW 
251955Z AUTO 00000KT 10SM CLR 13/M04 A3011 RMK AO2
KFCM 
19nm W 
251953Z VRB03KT 10SM CLR 13/M03 A3011 RMK AO2 SLP202 T01331033
TAF
KMSP 
10nm W 
251741Z 2518/2624 VRB04KT P6SM SKC FM252100 25007KT P6SM SKC FM260400 19004KT P6SM SCT250 FM261000 20005KT P6SM BKN200 FM261400 27010KT P6SM SCT040 OVC100 FM261600 31012G18KT P6SM VCSH BKN040 OVC100 FM262000 32014G22KT P6SM SCT040
NOTAMs
Click for the latest NOTAMs
NOTAMs are issued by the DoD/FAA and will open in a separate window not controlled by AirNav.

 

 
 

FBO, Fuel Providers, and Aircraft Ground Support

  
 Business Name 
 
 Contact 
 
 Services / Description 
 
Fuel Prices
 
Comments
  
Wipaire 651-451-1205
no information available

If you are affiliated with Wipaire and would like to show here your services, contact info, web link, logo, and more, click here
100LL
PS $4.74 
 Updated 16-Jul-2015
 
   write
PS=Pump service
Update Fuel Prices
 

Would you like to see your business listed on this page?

 If your business provides an interesting product or service to pilots, flight crews, aircraft, or users of the Wipline Seaplane Base, you should consider listing it here.  To start the listing process, click on the button below
 
Add a business
 

Other Pages about Wipline Seaplane Base

PDF page(s) from the Minnesota Airport Directory
 
Update a link
 
Copyright © AirNav, LLC. All rights reserved. Privacy Policy  Contact